Time;durP1;ratioP1;P1;durP2;ratioP2;P2;SDS_P1;SDS_P2;PMS_P1;PMS_P2;Temp;Humidity;BMP_temperature;BMP_pressure;BME280_temperature;BME280_humidity;BME280_pressure;Samples;Min_cycle;Max_cycle;Signal;HPM_P1;HPM_P2
2024/01/30 00:01:59;;;;;;;21.05;10.48;;;20.20;50.00;;;;;;5010094;28;20481;-62
2024/01/30 00:04:24;;;;;;;17.92;10.07;;;20.20;49.80;;;;;;5009990;28;20030;-63
2024/01/30 00:06:52;;;;;;;17.48;9.35;;;20.30;50.00;;;;;;5010171;28;20061;-61
2024/01/30 00:09:19;;;;;;;18.48;9.32;;;20.30;50.10;;;;;;5031906;22;20042;-50
2024/01/30 00:11:45;;;;;;;20.00;9.73;;;20.30;49.90;;;;;;4995081;28;20185;-56
2024/01/30 00:14:11;;;;;;;20.08;9.63;;;20.20;49.10;;;;;;4988845;28;20031;-54
2024/01/30 00:16:37;;;;;;;20.95;8.90;;;20.30;49.60;;;;;;5040404;28;20614;-51
2024/01/30 00:19:03;;;;;;;21.40;9.25;;;20.30;49.20;;;;;;5012326;28;20031;-56
2024/01/30 00:21:29;;;;;;;20.15;10.00;;;20.20;49.20;;;;;;4970378;28;20037;-55
2024/01/30 00:23:55;;;;;;;22.85;9.57;;;20.30;49.90;;;;;;4970751;28;20019;-53
2024/01/30 00:26:21;;;;;;;17.92;9.25;;;20.30;49.90;;;;;;4975719;28;20486;-54
2024/01/30 00:28:46;;;;;;;20.20;8.63;;;20.30;49.90;;;;;;4952697;28;20102;-56
2024/01/30 00:31:12;;;;;;;21.30;9.45;;;20.30;49.80;;;;;;4973045;28;20469;-55
2024/01/30 00:33:39;;;;;;;20.52;8.80;;;20.30;49.50;;;;;;4969390;28;20050;-56
2024/01/30 00:36:06;;;;;;;18.77;8.50;;;20.30;49.60;;;;;;4970364;28;20031;-54
2024/01/30 00:38:32;;;;;;;16.15;7.93;;;20.20;49.50;;;;;;4968854;28;20114;-55
2024/01/30 00:40:58;;;;;;;16.88;8.35;;;20.30;49.40;;;;;;4969604;28;20533;-54
2024/01/30 00:43:27;;;;;;;20.70;9.00;;;20.20;49.30;;;;;;4968564;28;20061;-54
2024/01/30 00:45:52;;;;;;;21.67;8.60;;;20.20;49.70;;;;;;4970442;28;20045;-52
2024/01/30 00:48:18;;;;;;;16.58;8.18;;;20.30;50.10;;;;;;4970364;28;20393;-52
2024/01/30 00:50:44;;;;;;;17.13;8.50;;;20.20;50.10;;;;;;4968433;28;20053;-52
2024/01/30 00:53:10;;;;;;;14.68;8.10;;;20.20;49.20;;;;;;4976280;28;20023;-53
2024/01/30 00:55:36;;;;;;;16.85;8.32;;;20.20;49.90;;;;;;4971639;28;20034;-55
2024/01/30 00:58:02;;;;;;;15.77;7.90;;;20.20;49.70;;;;;;4969310;28;20026;-55
2024/01/30 01:00:29;;;;;;;14.73;7.88;;;20.20;49.50;;;;;;4969067;28;20126;-51
2024/01/30 01:03:01;;;;;;;17.20;8.13;;;20.20;49.50;;;;;;4968973;28;20031;-54
2024/01/30 01:05:27;;;;;;;16.13;7.35;;;20.20;49.70;;;;;;4969513;28;20385;-53
2024/01/30 01:07:53;;;;;;;15.23;7.93;;;20.20;49.20;;;;;;4968596;28;20030;-51
2024/01/30 01:10:19;;;;;;;17.00;7.55;;;20.20;49.10;;;;;;4970053;28;20160;-52
2024/01/30 01:12:45;;;;;;;14.30;7.78;;;20.20;48.90;;;;;;4969826;28;20027;-50
2024/01/30 01:15:11;;;;;;;16.63;7.78;;;20.20;49.00;;;;;;4968876;28;20196;-47
2024/01/30 01:17:40;;;;;;;16.38;7.75;;;20.20;49.00;;;;;;5005318;28;20023;-49
2024/01/30 01:20:07;;;;;;;13.77;6.90;;;20.20;49.10;;;;;;4970097;28;20058;-52
2024/01/30 01:22:34;;;;;;;13.85;7.10;;;20.30;49.00;;;;;;4973147;28;20035;-49
2024/01/30 01:25:00;;;;;;;12.15;6.68;;;20.30;49.00;;;;;;4969775;28;20023;-48
2024/01/30 01:27:27;;;;;;;16.52;7.55;;;20.20;48.90;;;;;;4968919;28;20186;-49
2024/01/30 01:29:52;;;;;;;16.00;7.72;;;20.20;49.50;;;;;;4969325;28;20108;-49
2024/01/30 01:32:18;;;;;;;17.45;7.47;;;20.30;48.90;;;;;;4968995;28;20070;-48
2024/01/30 01:34:44;;;;;;;14.48;7.20;;;20.20;48.70;;;;;;4972696;28;20032;-52
2024/01/30 01:37:10;;;;;;;14.60;7.45;;;20.20;49.20;;;;;;4969010;28;20019;-50
2024/01/30 01:39:36;;;;;;;14.60;7.22;;;20.30;49.30;;;;;;4969816;28;20030;-50
2024/01/30 01:42:02;;;;;;;15.27;7.05;;;20.20;49.90;;;;;;4968407;28;20060;-50
2024/01/30 01:44:28;;;;;;;13.70;7.10;;;20.20;49.50;;;;;;4970349;28;20033;-49
2024/01/30 01:46:54;;;;;;;16.08;7.28;;;20.20;49.90;;;;;;4968976;28;20030;-49
2024/01/30 01:49:23;;;;;;;14.40;7.18;;;20.20;50.10;;;;;;4969607;28;20022;-54
2024/01/30 01:51:51;;;;;;;18.83;6.33;;;20.20;50.20;;;;;;5004707;28;20035;-51
2024/01/30 01:54:17;;;;;;;20.00;7.22;;;20.20;50.00;;;;;;4968650;28;20290;-53
2024/01/30 01:56:43;;;;;;;15.32;7.28;;;20.20;50.80;;;;;;4968616;28;20042;-53
2024/01/30 01:59:09;;;;;;;13.90;7.00;;;20.20;50.60;;;;;;4975054;28;20057;-53
2024/01/30 02:01:37;;;;;;;14.05;6.93;;;20.20;50.00;;;;;;4968342;28;20026;-51
2024/01/30 02:04:03;;;;;;;15.52;6.38;;;20.20;50.00;;;;;;4975266;28;20505;-53
2024/01/30 02:06:29;;;;;;;18.90;6.97;;;20.20;49.90;;;;;;4972093;28;20019;-48
2024/01/30 02:08:55;;;;;;;14.75;6.78;;;20.20;50.50;;;;;;4971962;28;20049;-53
2024/01/30 02:11:22;;;;;;;12.25;6.57;;;20.20;50.60;;;;;;4973029;28;20228;-54
2024/01/30 02:13:50;;;;;;;14.85;6.45;;;20.20;49.70;;;;;;4971718;28;20054;-54
2024/01/30 02:16:17;;;;;;;14.27;6.70;;;20.20;50.00;;;;;;4975109;28;20027;-50
2024/01/30 02:18:45;;;;;;;13.82;6.50;;;20.20;49.90;;;;;;4971628;28;20394;-51
2024/01/30 02:21:25;;;;;;;12.90;6.50;;;20.20;49.60;;;;;;4971533;28;20091;-53
2024/01/30 02:23:52;;;;;;;13.48;6.65;;;20.20;49.90;;;;;;4977645;28;20030;-52
2024/01/30 02:26:18;;;;;;;12.80;5.82;;;20.20;49.70;;;;;;4971599;28;20551;-54
2024/01/30 02:28:43;;;;;;;10.73;5.97;;;20.20;49.80;;;;;;4971484;28;20106;-51
2024/01/30 02:31:09;;;;;;;11.55;6.13;;;20.20;49.80;;;;;;4974085;28;20493;-52
2024/01/30 02:33:35;;;;;;;15.27;6.28;;;20.20;49.60;;;;;;4971211;28;20041;-52
2024/01/30 02:36:01;;;;;;;16.58;5.70;;;20.20;49.70;;;;;;4976551;28;20030;-47
2024/01/30 02:38:26;;;;;;;11.35;6.30;;;20.20;49.50;;;;;;4978959;28;20401;-48
2024/01/30 02:40:52;;;;;;;10.85;5.88;;;20.20;49.30;;;;;;4978632;28;20037;-48
2024/01/30 02:43:18;;;;;;;10.85;5.90;;;20.20;49.20;;;;;;4971310;28;20019;-55
2024/01/30 02:45:44;;;;;;;10.00;5.50;;;20.20;49.20;;;;;;4971396;28;20049;-51
2024/01/30 02:48:10;;;;;;;11.88;5.70;;;20.20;49.30;;;;;;4971290;28;20030;-53
2024/01/30 02:50:35;;;;;;;11.05;5.72;;;20.20;49.30;;;;;;4972293;28;20398;-52
2024/01/30 02:53:01;;;;;;;12.65;6.22;;;20.20;49.00;;;;;;4971996;28;20106;-54
2024/01/30 02:55:27;;;;;;;11.38;5.82;;;20.20;48.90;;;;;;4978117;28;20478;-51
2024/01/30 02:57:53;;;;;;;12.02;5.20;;;20.20;49.80;;;;;;4974562;28;20600;-52
2024/01/30 03:00:20;;;;;;;11.30;5.60;;;20.20;49.40;;;;;;4974176;28;20381;-55
2024/01/30 03:02:46;;;;;;;10.55;5.45;;;20.20;48.90;;;;;;4977089;28;20033;-48
2024/01/30 03:05:12;;;;;;;11.05;5.70;;;20.30;49.00;;;;;;4973998;28;20630;-48
2024/01/30 03:07:37;;;;;;;11.35;5.95;;;20.20;48.90;;;;;;4978774;28;20036;-52
2024/01/30 03:10:06;;;;;;;10.52;5.25;;;20.20;49.00;;;;;;4971048;28;20393;-49
2024/01/30 03:12:32;;;;;;;12.38;5.72;;;20.20;48.70;;;;;;4979275;28;20489;-49
2024/01/30 03:14:58;;;;;;;10.75;5.90;;;20.30;48.80;;;;;;4978115;28;20046;-50
2024/01/30 03:17:24;;;;;;;10.82;5.28;;;20.30;48.90;;;;;;4976065;28;20027;-49
2024/01/30 03:19:50;;;;;;;10.57;4.75;;;20.30;48.90;;;;;;4972658;28;20030;-52
2024/01/30 03:22:16;;;;;;;9.88;5.88;;;20.20;48.80;;;;;;4971561;28;20058;-56
2024/01/30 03:24:42;;;;;;;10.57;5.40;;;20.20;49.00;;;;;;4975923;28;20113;-51
2024/01/30 03:27:08;;;;;;;9.05;5.13;;;20.20;50.00;;;;;;4974702;28;20552;-55
2024/01/30 03:29:34;;;;;;;11.05;5.70;;;20.20;49.10;;;;;;4973553;28;20030;-53
2024/01/30 03:32:00;;;;;;;11.40;5.43;;;20.20;49.90;;;;;;4972711;28;20042;-56
2024/01/30 03:34:26;;;;;;;8.95;5.15;;;20.20;48.90;;;;;;4972677;28;20085;-51
2024/01/30 03:36:51;;;;;;;9.18;5.10;;;20.20;48.60;;;;;;4972578;28;20533;-56
2024/01/30 03:39:17;;;;;;;9.98;5.22;;;20.20;48.70;;;;;;4978104;28;20071;-53
2024/01/30 03:41:44;;;;;;;11.23;5.60;;;20.20;49.00;;;;;;4971288;28;20037;-56
2024/01/30 03:44:10;;;;;;;12.20;5.68;;;20.20;49.10;;;;;;4977073;28;20051;-53
2024/01/30 03:46:36;;;;;;;11.57;5.45;;;20.20;49.00;;;;;;4974695;28;20033;-47
2024/01/30 03:49:02;;;;;;;12.82;5.40;;;20.20;49.20;;;;;;4974417;28;20031;-52
2024/01/30 03:51:28;;;;;;;10.07;5.32;;;20.20;49.40;;;;;;4974468;28;20034;-54
2024/01/30 03:53:53;;;;;;;11.32;5.43;;;20.20;49.40;;;;;;4977688;28;20042;-55
2024/01/30 03:56:19;;;;;;;11.30;5.68;;;20.20;49.30;;;;;;4971275;28;20026;-56
2024/01/30 03:58:45;;;;;;;9.90;5.30;;;20.20;49.40;;;;;;4970161;28;20498;-53
2024/01/30 04:01:14;;;;;;;8.82;5.10;;;20.20;49.20;;;;;;4972324;28;20073;-51
2024/01/30 04:03:41;;;;;;;9.65;5.18;;;20.20;48.90;;;;;;4977331;28;20070;-53
2024/01/30 04:06:07;;;;;;;11.00;5.30;;;20.20;49.80;;;;;;4974212;28;20023;-55
2024/01/30 04:08:33;;;;;;;11.85;5.30;;;20.20;49.30;;;;;;4972992;28;20458;-53
2024/01/30 04:10:58;;;;;;;11.55;5.95;;;20.20;49.40;;;;;;4970090;28;20018;-52
2024/01/30 04:13:24;;;;;;;11.90;5.10;;;20.20;49.10;;;;;;4969319;28;20073;-53
2024/01/30 04:15:50;;;;;;;9.98;5.25;;;20.20;49.00;;;;;;4979757;28;20489;-56
2024/01/30 04:18:15;;;;;;;11.43;5.18;;;20.20;49.30;;;;;;4973341;28;20486;-56
2024/01/30 04:20:41;;;;;;;9.88;5.15;;;20.20;49.10;;;;;;4977276;28;20085;-54
2024/01/30 04:23:07;;;;;;;9.02;4.97;;;20.20;49.10;;;;;;4980548;28;20026;-56
2024/01/30 04:25:33;;;;;;;8.93;4.63;;;20.20;49.10;;;;;;4972653;28;20031;-54
2024/01/30 04:27:58;;;;;;;8.57;4.78;;;20.20;49.40;;;;;;4971607;28;20053;-55
2024/01/30 04:30:24;;;;;;;10.68;5.40;;;20.20;49.10;;;;;;4975545;28;20080;-55
2024/01/30 04:32:50;;;;;;;7.60;4.85;;;20.20;49.00;;;;;;4968880;28;20031;-52
2024/01/30 04:35:16;;;;;;;10.02;4.68;;;20.20;48.80;;;;;;4970193;28;20023;-55
2024/01/30 04:37:41;;;;;;;12.60;4.95;;;20.20;49.30;;;;;;4976671;28;20387;-56
2024/01/30 04:40:08;;;;;;;10.18;4.93;;;20.20;49.20;;;;;;4980207;28;20035;-51
2024/01/30 04:42:34;;;;;;;9.60;5.43;;;20.20;49.10;;;;;;4975970;28;20045;-54
2024/01/30 04:44:59;;;;;;;10.20;4.90;;;20.20;49.60;;;;;;4969906;28;20023;-53
2024/01/30 04:47:25;;;;;;;8.48;4.85;;;20.20;49.00;;;;;;4970647;28;20027;-55
2024/01/30 04:49:51;;;;;;;7.68;4.53;;;20.20;50.30;;;;;;4969209;28;20173;-54
2024/01/30 04:52:17;;;;;;;9.55;5.03;;;20.20;49.30;;;;;;4970365;28;20449;-54
2024/01/30 04:54:43;;;;;;;10.07;4.97;;;20.20;49.30;;;;;;4970333;28;20056;-55
2024/01/30 04:57:12;;;;;;;9.15;5.20;;;20.20;49.20;;;;;;4990366;28;20025;-51
2024/01/30 04:59:37;;;;;;;10.35;5.05;;;20.20;49.70;;;;;;4986003;28;20436;-53
2024/01/30 05:02:03;;;;;;;9.27;4.70;;;20.20;49.60;;;;;;4972300;28;20029;-48
2024/01/30 05:04:29;;;;;;;11.90;5.22;;;20.20;49.80;;;;;;4992191;28;20023;-49
2024/01/30 05:06:55;;;;;;;7.68;4.72;;;20.20;49.70;;;;;;4970294;28;20031;-48
2024/01/30 05:09:21;;;;;;;10.10;5.25;;;20.20;49.80;;;;;;4974782;28;20112;-49
2024/01/30 05:11:47;;;;;;;8.77;4.85;;;20.20;49.30;;;;;;4969034;28;20026;-47
2024/01/30 05:14:14;;;;;;;11.15;5.30;;;20.20;49.30;;;;;;4974046;28;20031;-49
2024/01/30 05:16:41;;;;;;;11.20;5.50;;;20.20;49.50;;;;;;4974307;28;20443;-51
2024/01/30 05:19:07;;;;;;;8.55;4.72;;;20.20;49.80;;;;;;4969023;28;20023;-48
2024/01/30 05:21:33;;;;;;;9.80;5.13;;;20.20;49.90;;;;;;4969678;28;20041;-50
2024/01/30 05:23:58;;;;;;;7.95;5.03;;;20.20;50.00;;;;;;4969200;28;20027;-53
2024/01/30 05:26:24;;;;;;;7.82;4.78;;;20.20;49.40;;;;;;4974966;28;20026;-54
2024/01/30 05:28:50;;;;;;;8.32;4.90;;;20.20;49.30;;;;;;4973439;28;20026;-50
2024/01/30 05:31:16;;;;;;;8.40;5.00;;;20.20;49.30;;;;;;4974526;28;20470;-54
2024/01/30 05:33:41;;;;;;;10.32;4.97;;;20.20;49.20;;;;;;4968247;28;20522;-50
2024/01/30 05:36:07;;;;;;;8.60;5.03;;;20.20;49.30;;;;;;4975914;28;20448;-47
2024/01/30 05:38:33;;;;;;;11.23;5.57;;;20.20;49.00;;;;;;4975637;28;20038;-50
2024/01/30 05:40:59;;;;;;;9.15;4.90;;;20.20;49.40;;;;;;4969049;28;20027;-53
2024/01/30 05:43:25;;;;;;;10.88;5.38;;;20.20;49.30;;;;;;4970618;28;20023;-55
2024/01/30 05:45:51;;;;;;;11.38;5.10;;;20.20;49.90;;;;;;4970007;28;20026;-51
2024/01/30 05:48:17;;;;;;;11.02;5.15;;;20.20;49.80;;;;;;4975115;28;20023;-51
2024/01/30 05:50:43;;;;;;;9.20;5.18;;;20.20;49.70;;;;;;4968568;28;20027;-52
2024/01/30 05:53:09;;;;;;;8.70;4.95;;;20.20;49.30;;;;;;4969512;28;20019;-50
2024/01/30 05:55:35;;;;;;;10.40;4.88;;;20.20;50.20;;;;;;4969672;28;20401;-48
2024/01/30 05:58:00;;;;;;;12.13;5.18;;;20.20;49.20;;;;;;4970037;28;20114;-49
2024/01/30 06:00:27;;;;;;;10.07;5.18;;;20.20;49.30;;;;;;4968659;28;20374;-55
2024/01/30 06:02:52;;;;;;;8.57;5.00;;;20.20;50.20;;;;;;4968869;28;20386;-52
2024/01/30 06:05:18;;;;;;;11.23;5.60;;;20.20;49.50;;;;;;4993664;28;20016;-51
2024/01/30 06:07:44;;;;;;;9.13;5.50;;;20.20;49.70;;;;;;4978643;28;20099;-50
2024/01/30 06:10:10;;;;;;;9.90;5.28;;;20.20;50.30;;;;;;4969415;28;20027;-54
2024/01/30 06:12:36;;;;;;;9.18;5.20;;;20.20;50.80;;;;;;4968395;28;20062;-53
2024/01/30 06:15:02;;;;;;;9.50;4.57;;;20.20;49.70;;;;;;4977481;28;20042;-48
2024/01/30 06:17:28;;;;;;;9.25;5.38;;;20.20;50.90;;;;;;4974669;28;20027;-48
2024/01/30 06:19:54;;;;;;;10.18;5.13;;;20.20;49.80;;;;;;4969247;28;20110;-50
2024/01/30 06:22:20;;;;;;;8.48;4.97;;;20.20;49.90;;;;;;4968175;28;20444;-47
2024/01/30 06:24:48;;;;;;;10.40;4.93;;;20.20;49.70;;;;;;4974999;28;20037;-50
2024/01/30 06:27:15;;;;;;;9.55;5.05;;;20.20;50.10;;;;;;4969039;28;20478;-50
2024/01/30 06:29:42;;;;;;;10.00;4.88;;;20.10;49.70;;;;;;4970734;28;20046;-52
2024/01/30 06:32:08;;;;;;;7.68;4.60;;;20.20;50.30;;;;;;4968254;28;20076;-51
2024/01/30 06:34:34;;;;;;;9.73;5.10;;;20.20;49.60;;;;;;4972144;28;20035;-53
2024/01/30 06:37:00;;;;;;;8.30;5.07;;;20.20;50.10;;;;;;4967773;28;20038;-51
2024/01/30 06:39:26;;;;;;;9.93;5.10;;;20.20;49.90;;;;;;4985570;28;20038;-49
2024/01/30 06:41:52;;;;;;;10.63;5.40;;;20.20;49.80;;;;;;4967637;28;20138;-50
2024/01/30 06:44:18;;;;;;;11.75;5.38;;;20.20;50.00;;;;;;4971337;28;20022;-52
2024/01/30 06:46:44;;;;;;;10.90;4.90;;;20.20;50.30;;;;;;4970203;28;20494;-50
2024/01/30 06:49:10;;;;;;;9.85;5.05;;;20.20;50.50;;;;;;4968491;28;20018;-48
2024/01/30 06:51:35;;;;;;;11.00;5.07;;;20.20;50.60;;;;;;4971000;28;20030;-49
2024/01/30 06:54:01;;;;;;;9.45;5.45;;;20.20;49.90;;;;;;4971157;28;20440;-48
2024/01/30 06:56:28;;;;;;;9.60;5.22;;;20.20;49.90;;;;;;4974231;28;20061;-51
2024/01/30 06:58:54;;;;;;;10.23;5.07;;;20.20;50.30;;;;;;4976524;28;20092;-50
2024/01/30 07:01:20;;;;;;;12.80;5.30;;;20.20;50.70;;;;;;4971075;28;20375;-55
2024/01/30 07:03:46;;;;;;;10.13;5.38;;;20.10;50.20;;;;;;4973120;28;20027;-56
2024/01/30 07:06:12;;;;;;;11.50;5.57;;;20.20;50.10;;;;;;4970847;28;20486;-55
2024/01/30 07:08:38;;;;;;;11.25;5.60;;;20.10;50.20;;;;;;4971633;28;20102;-53
2024/01/30 07:11:06;;;;;;;8.68;5.05;;;20.10;50.20;;;;;;4972161;28;20054;-53
2024/01/30 07:13:32;;;;;;;10.18;5.30;;;20.20;49.80;;;;;;4974749;28;20019;-55
2024/01/30 07:15:58;;;;;;;10.27;5.72;;;20.20;50.60;;;;;;4970429;28;20031;-55
2024/01/30 07:18:24;;;;;;;10.57;5.63;;;20.10;49.90;;;;;;4970778;28;20023;-55
2024/01/30 07:20:50;;;;;;;13.18;5.90;;;20.20;49.50;;;;;;4969751;28;20031;-54
2024/01/30 07:23:17;;;;;;;10.98;5.60;;;20.20;49.20;;;;;;4969396;28;20023;-56
2024/01/30 07:25:48;;;;;;;11.02;6.13;;;20.20;50.70;;;;;;4972002;28;20078;-54
2024/01/30 07:28:16;;;;;;;12.10;6.28;;;20.20;49.70;;;;;;4969919;28;20527;-48
2024/01/30 07:30:43;;;;;;;12.25;6.20;;;20.20;50.30;;;;;;4975040;28;20156;-48
2024/01/30 07:33:09;;;;;;;12.55;6.55;;;20.20;50.70;;;;;;4971261;28;20037;-54
2024/01/30 07:35:35;;;;;;;11.52;6.45;;;20.20;50.30;;;;;;4970498;28;20489;-48
2024/01/30 07:38:01;;;;;;;14.20;6.50;;;20.20;50.10;;;;;;4971631;28;20371;-49
2024/01/30 07:40:27;;;;;;;13.65;6.75;;;20.20;51.00;;;;;;4971426;28;20030;-49
2024/01/30 07:42:54;;;;;;;13.35;6.88;;;20.10;51.70;;;;;;4969021;28;20027;-51
2024/01/30 07:45:24;;;;;;;11.85;6.72;;;20.10;51.00;;;;;;5005283;28;20033;-54
2024/01/30 07:47:51;;;;;;;11.60;6.25;;;20.20;50.40;;;;;;4969692;28;20027;-52
2024/01/30 07:50:17;;;;;;;12.93;6.45;;;20.20;50.30;;;;;;4970434;28;20557;-55
2024/01/30 07:52:43;;;;;;;12.40;6.32;;;20.20;50.60;;;;;;4971194;28;20440;-52
2024/01/30 07:55:09;;;;;;;12.95;5.95;;;20.20;51.90;;;;;;4971557;28;20500;-54
2024/01/30 07:57:35;;;;;;;16.52;7.13;;;20.20;51.30;;;;;;4971658;28;20034;-58
2024/01/30 08:00:02;;;;;;;25.60;8.23;;;20.20;51.50;;;;;;4970602;28;20023;-58
2024/01/30 08:02:32;;;;;;;18.27;7.15;;;20.20;52.30;;;;;;4970928;28;20109;-55
2024/01/30 08:04:58;;;;;;;18.48;7.03;;;20.20;50.80;;;;;;4971906;28;20562;-57
2024/01/30 08:07:24;;;;;;;13.13;6.68;;;20.20;50.80;;;;;;4969779;28;20030;-57
2024/01/30 08:09:50;;;;;;;17.17;7.13;;;20.20;51.10;;;;;;4970958;28;20062;-55
2024/01/30 08:12:17;;;;;;;28.40;7.65;;;20.20;51.50;;;;;;4970099;28;20080;-48
2024/01/30 08:14:42;;;;;;;13.95;6.10;;;20.20;52.40;;;;;;4971073;28;20548;-49
2024/01/30 08:17:08;;;;;;;14.55;7.00;;;20.20;51.90;;;;;;4971261;28;20058;-54
2024/01/30 08:19:34;;;;;;;16.50;6.00;;;20.30;52.60;;;;;;4971248;28;20101;-57
2024/01/30 08:21:59;;;;;;;36.15;7.05;;;20.30;52.30;;;;;;4963523;28;20050;-51
2024/01/30 08:24:25;;;;;;;17.33;6.80;;;20.30;53.30;;;;;;4981755;28;20035;-49
2024/01/30 08:26:51;;;;;;;13.80;6.57;;;20.30;53.40;;;;;;5053782;28;20513;-54
2024/01/30 08:29:17;;;;;;;16.05;7.07;;;20.30;54.10;;;;;;5069798;28;20025;-51
2024/01/30 08:31:44;;;;;;;16.80;6.53;;;20.30;55.00;;;;;;5068931;28;20040;-49
2024/01/30 08:34:09;;;;;;;21.48;7.97;;;20.40;53.90;;;;;;5016221;28;20035;-54
2024/01/30 08:36:36;;;;;;;16.00;7.93;;;20.40;54.80;;;;;;5009776;28;20139;-48
2024/01/30 08:39:02;;;;;;;13.70;6.90;;;20.40;53.80;;;;;;4967913;28;20031;-48
2024/01/30 08:41:28;;;;;;;19.10;8.10;;;20.50;54.00;;;;;;4988557;28;20095;-52
2024/01/30 08:43:54;;;;;;;15.35;6.65;;;20.50;52.90;;;;;;4967304;28;20026;-51
2024/01/30 08:46:20;;;;;;;13.45;6.85;;;20.40;51.20;;;;;;5003942;28;20490;-55
2024/01/30 08:48:47;;;;;;;14.57;7.13;;;20.40;51.30;;;;;;5056490;28;20024;-47
2024/01/30 08:51:13;;;;;;;24.48;7.43;;;20.40;51.90;;;;;;5069550;28;20030;-50
2024/01/30 08:53:39;;;;;;;18.92;7.43;;;20.40;50.00;;;;;;5067608;28;20107;-51
2024/01/30 08:56:06;;;;;;;15.82;6.45;;;20.50;51.30;;;;;;5020042;28;20493;-52
2024/01/30 08:58:32;;;;;;;14.50;6.65;;;20.50;51.20;;;;;;5069128;28;20384;-49
2024/01/30 09:00:58;;;;;;;19.25;7.07;;;20.40;51.30;;;;;;5069049;28;20040;-47
2024/01/30 09:03:24;;;;;;;16.60;7.18;;;20.40;49.90;;;;;;5068547;28;20500;-47
2024/01/30 09:05:50;;;;;;;16.38;7.15;;;20.30;50.50;;;;;;5068981;28;20158;-49
2024/01/30 09:08:16;;;;;;;12.68;6.85;;;20.40;51.00;;;;;;5068921;28;20020;-51
2024/01/30 09:10:42;;;;;;;21.85;7.32;;;20.40;51.60;;;;;;5068810;28;20391;-49
2024/01/30 09:13:08;;;;;;;21.33;6.97;;;20.50;52.80;;;;;;5068497;28;20478;-50
2024/01/30 09:15:34;;;;;;;18.60;6.95;;;20.50;52.90;;;;;;5052965;28;20113;-49
2024/01/30 09:17:59;;;;;;;25.85;7.60;;;20.60;51.70;;;;;;5065239;28;20053;-50
2024/01/30 09:20:25;;;;;;;29.33;7.13;;;20.70;54.40;;;;;;5069061;28;20103;-51
2024/01/30 09:22:51;;;;;;;26.02;7.50;;;20.70;53.90;;;;;;5068372;28;20029;-49
2024/01/30 09:25:18;;;;;;;16.63;7.53;;;20.80;50.70;;;;;;5069189;28;20024;-53
2024/01/30 09:27:44;;;;;;;29.42;9.15;;;20.80;55.00;;;;;;5068677;28;20484;-52
2024/01/30 09:30:10;;;;;;;28.90;7.75;;;20.80;51.90;;;;;;5068715;28;20036;-48
2024/01/30 09:32:36;;;;;;;30.08;7.85;;;20.70;51.80;;;;;;5068558;28;20517;-56
2024/01/30 09:35:02;;;;;;;27.38;7.70;;;20.70;54.50;;;;;;5067196;28;20025;-49
2024/01/30 09:37:27;;;;;;;22.05;7.65;;;20.80;53.30;;;;;;5068586;28;20066;-51
2024/01/30 09:39:53;;;;;;;19.23;7.00;;;20.70;53.80;;;;;;5068484;28;20123;-50
2024/01/30 09:42:35;;;;;;;26.08;7.43;;;20.70;54.10;;;;;;5068430;28;20026;-49
2024/01/30 09:45:03;;;;;;;20.67;6.78;;;20.70;54.10;;;;;;5068538;28;20082;-49
2024/01/30 09:47:44;;;;;;;19.20;7.43;;;20.70;53.90;;;;;;5068752;28;20028;-49
2024/01/30 09:50:11;;;;;;;16.52;7.57;;;20.60;53.80;;;;;;5084339;28;20562;-53
2024/01/30 09:52:37;;;;;;;19.77;7.05;;;20.60;53.70;;;;;;5068396;28;20029;-53
2024/01/30 09:55:04;;;;;;;16.38;6.78;;;20.60;53.70;;;;;;5068267;28;20028;-47
2024/01/30 09:57:30;;;;;;;18.50;6.78;;;20.60;53.80;;;;;;5068489;28;20149;-50
2024/01/30 09:59:56;;;;;;;18.67;7.00;;;20.60;53.90;;;;;;5068269;28;20033;-51
2024/01/30 10:02:22;;;;;;;16.40;6.43;;;20.70;53.60;;;;;;5068279;28;20056;-48
2024/01/30 10:04:51;;;;;;;16.08;6.65;;;20.60;53.60;;;;;;5068301;28;20029;-49
2024/01/30 10:07:18;;;;;;;19.67;7.40;;;20.70;53.70;;;;;;5068694;28;20043;-50
2024/01/30 10:09:44;;;;;;;11.27;6.22;;;20.60;53.50;;;;;;5067856;28;20480;-49
2024/01/30 10:12:11;;;;;;;15.38;6.50;;;20.60;53.40;;;;;;5067996;28;20028;-49
2024/01/30 10:14:40;;;;;;;17.50;6.40;;;20.60;53.50;;;;;;5068261;28;20039;-48
2024/01/30 10:17:11;;;;;;;14.27;6.78;;;20.60;53.40;;;;;;5022494;28;20028;-48
2024/01/30 10:19:38;;;;;;;14.75;6.38;;;20.60;53.20;;;;;;5068248;28;20036;-50
2024/01/30 10:22:04;;;;;;;16.30;6.10;;;20.60;53.10;;;;;;5067516;28;20055;-49
2024/01/30 10:24:33;;;;;;;16.17;6.40;;;20.60;53.20;;;;;;5070380;28;20492;-53
2024/01/30 10:26:59;;;;;;;12.65;5.88;;;20.60;53.30;;;;;;5070932;28;20028;-55
2024/01/30 10:29:25;;;;;;;13.38;6.82;;;20.60;53.10;;;;;;5072163;28;20046;-53
2024/01/30 10:32:05;;;;;;;15.52;6.05;;;20.60;53.00;;;;;;5071638;28;20024;-52
2024/01/30 10:34:31;;;;;;;;;;;20.60;53.00;;;;;;5072218;28;20016;-49
2024/01/30 10:37:15;;;;;;;13.20;6.53;;;20.60;53.00;;;;;;5071841;28;19912;-54
2024/01/30 10:39:42;;;;;;;14.90;7.15;;;20.60;52.90;;;;;;5071770;28;20479;-52
2024/01/30 10:42:13;;;;;;;12.45;6.43;;;20.60;52.80;;;;;;5071551;28;20501;-52
2024/01/30 10:44:59;;;;;;;13.05;6.40;;;20.60;52.90;;;;;;5071856;28;20040;-51
2024/01/30 10:47:29;;;;;;;16.08;6.55;;;20.60;52.80;;;;;;5037805;28;20108;-51
2024/01/30 10:49:55;;;;;;;;;;;20.60;52.60;;;;;;5071713;28;20032;-55
2024/01/30 10:52:25;;;;;;;14.13;6.38;;;20.60;52.70;;;;;;5071652;28;19912;-51
2024/01/30 10:54:51;;;;;;;9.45;5.40;;;20.60;52.70;;;;;;5071302;28;20499;-50
2024/01/30 10:57:18;;;;;;;13.05;6.00;;;20.60;52.50;;;;;;5071739;28;20059;-50
2024/01/30 10:59:46;;;;;;;13.43;5.93;;;20.60;52.70;;;;;;5071060;28;20032;-51
2024/01/30 11:02:13;;;;;;;11.13;5.60;;;20.60;52.50;;;;;;5071270;28;20639;-52
2024/01/30 11:04:41;;;;;;;13.98;6.38;;;20.60;52.50;;;;;;5071400;28;20036;-56
2024/01/30 11:07:17;;;;;;;13.98;5.85;;;20.60;52.70;;;;;;5021942;28;20480;-51
2024/01/30 11:10:14;;;;;;;13.90;6.70;;;20.70;52.50;;;;;;5071027;28;20074;-51
2024/01/30 11:12:42;;;;;;;11.60;6.00;;;20.60;52.30;;;;;;5029123;28;20497;-50
2024/01/30 11:15:10;;;;;;;11.70;6.13;;;20.60;52.40;;;;;;5029275;28;20064;-50
2024/01/30 11:17:47;;;;;;;13.02;5.70;;;20.60;52.30;;;;;;5029280;28;20037;-50
2024/01/30 11:20:19;;;;;;;13.75;6.20;;;20.70;52.60;;;;;;5028353;28;20116;-50
2024/01/30 11:22:46;;;;;;;11.13;5.95;;;20.60;52.30;;;;;;5028484;28;20051;-50
2024/01/30 11:25:16;;;;;;;13.52;5.80;;;20.60;53.20;;;;;;5028818;28;20499;-48
2024/01/30 11:27:43;;;;;;;12.55;6.25;;;20.60;53.00;;;;;;5028616;28;20114;-54
2024/01/30 11:30:09;;;;;;;14.95;6.22;;;20.60;53.60;;;;;;5028594;28;20103;-50
2024/01/30 11:32:35;;;;;;;13.32;6.78;;;20.60;52.60;;;;;;5027568;28;20053;-50
2024/01/30 11:35:06;;;;;;;18.30;6.18;;;20.60;52.50;;;;;;5027542;28;20034;-50
2024/01/30 11:37:32;;;;;;;14.48;6.07;;;20.60;52.40;;;;;;5029330;28;20033;-51
2024/01/30 11:39:58;;;;;;;18.30;6.05;;;20.50;52.30;;;;;;5028737;28;20034;-51
2024/01/30 11:42:27;;;;;;;13.77;6.25;;;20.50;52.30;;;;;;5028223;28;20041;-54
2024/01/30 11:44:53;;;;;;;13.55;5.65;;;20.50;52.50;;;;;;5028811;28;20037;-49
2024/01/30 11:47:18;;;;;;;16.63;5.95;;;20.50;52.10;;;;;;5028794;28;20623;-51
2024/01/30 11:49:45;;;;;;;10.95;5.95;;;20.50;52.00;;;;;;5061815;28;20044;-51
2024/01/30 11:52:10;;;;;;;11.70;5.55;;;20.50;52.00;;;;;;5070429;28;20025;-56
2024/01/30 11:54:40;;;;;;;11.98;6.10;;;20.50;51.90;;;;;;5070183;28;20506;-53
2024/01/30 11:57:05;;;;;;;12.80;6.03;;;20.50;51.90;;;;;;5070043;28;20025;-53
2024/01/30 11:59:31;;;;;;;12.65;6.45;;;20.50;51.90;;;;;;5070437;28;20017;-56
2024/01/30 12:01:57;;;;;;;14.45;6.15;;;20.50;51.90;;;;;;5063487;28;20125;-50
2024/01/30 12:04:23;;;;;;;14.88;6.55;;;20.50;52.50;;;;;;5010385;28;20034;-53
2024/01/30 12:06:52;;;;;;;10.80;5.85;;;20.60;52.00;;;;;;5010468;28;20031;-49
2024/01/30 12:09:17;;;;;;;12.68;5.95;;;20.60;51.80;;;;;;4991957;28;20032;-56
2024/01/30 12:11:47;;;;;;;13.32;6.13;;;20.60;51.80;;;;;;4971503;28;20042;-50
2024/01/30 12:14:13;;;;;;;16.80;7.00;;;20.60;51.70;;;;;;4997214;28;20031;-49
2024/01/30 12:16:39;;;;;;;17.45;6.05;;;20.60;51.70;;;;;;4994134;28;20421;-49
2024/01/30 12:19:05;;;;;;;10.98;6.05;;;20.60;51.70;;;;;;4984707;28;20021;-52
2024/01/30 12:21:31;;;;;;;11.50;5.65;;;20.60;51.70;;;;;;5013711;28;20494;-48
2024/01/30 12:23:57;;;;;;;12.63;6.03;;;20.60;51.80;;;;;;4987329;28;20096;-51
2024/01/30 12:26:25;;;;;;;12.63;6.18;;;20.50;51.60;;;;;;4996031;28;20100;-55
2024/01/30 12:28:55;;;;;;;11.23;6.00;;;20.50;51.80;;;;;;5023844;28;20114;-51
2024/01/30 12:31:32;;;;;;;11.95;6.10;;;20.50;52.30;;;;;;4983375;28;20066;-54
2024/01/30 12:34:00;;;;;;;10.77;6.10;;;20.50;51.60;;;;;;4991590;28;20496;-52
2024/01/30 12:36:26;;;;;;;14.82;5.95;;;20.50;51.60;;;;;;4999626;28;20024;-51